Daihatsumaru — JD2764 — position and weather

sailwx.info

Track history (hours):
 
Tides and Currents Weather Stations Pressure Air Temp Water Temp Dewpoint Dewpoint Depression Visibility Wind Speed Wind Dir Waves Ship Positions

Daihatsumaru

Last reported at 2016-Jul-29 23:32 UTC. Time now 2016-Jul-29 23:40 UTC.
Position N 34°41' E 135°23'.

Length 106 m; draft 4.5 m.

Type: Cargo ship. MMSI: 431000701.

Date/timePositionNaut miles runAvg speedWind from/ knotsBaromVisibWave heightAir tempDewpointWater temp
2016-Jul-29 23:32N 34°41' E 135°23'2 2.2
2016-Jul-29 22:30N 34°40' E 135°21'0 0.0
2016-Jul-29 21:30N 34°40' E 135°21'0 0.0
2016-Jul-29 20:30N 34°40' E 135°21'0 0.1
2016-Jul-29 19:33N 34°40' E 135°21'1313.5
2016-Jul-29 18:33N 34°35' E 135°06'7 0.2
2016-Jul-28 04:33N 34°37' E 134°58'1514.8
2016-Jul-28 03:33N 34°38' E 135°16'7 7.1
2016-Jul-28 02:32N 34°41' E 135°23'0 0.0
2016-Jul-28 01:26N 34°41' E 135°23'0 0.0
2016-Jul-28 00:26N 34°41' E 135°23'0 0.0
2016-Jul-27 23:26N 34°41' E 135°23'0 0.0
2016-Jul-27 22:33N 34°41' E 135°23'3 2.9
2016-Jul-27 21:33N 34°40' E 135°20'0 0.0
2016-Jul-27 20:33N 34°40' E 135°20'8 8.3
2016-Jul-27 19:33N 34°35' E 135°12'1413.7
2016-Jul-27 18:34N 34°36' E 134°55'4 0.1
2016-Jul-26 04:11N 34°35' E 134°51'1016.4
2016-Jul-26 03:34N 34°36' E 135°03'1514.7
2016-Jul-26 02:33N 34°40' E 135°20'3 3.0
2016-Jul-26 01:33N 34°41' E 135°23'0 0.0
2016-Jul-26 00:33N 34°41' E 135°23'0 0.0
2016-Jul-25 23:33N 34°41' E 135°23'0 0.0
2016-Jul-25 22:21N 34°41' E 135°23'0 0.0
2016-Jul-25 21:33N 34°41' E 135°23'0 0.0
2016-Jul-25 20:27N 34°41' E 135°23'0 0.0
2016-Jul-25 19:33N 34°41' E 135°23'0 0.0
2016-Jul-25 18:33N 34°41' E 135°23'0 0.0
2016-Jul-25 17:33N 34°41' E 135°23'0 0.0
2016-Jul-25 16:33N 34°41' E 135°23'0 0.0
2016-Jul-25 15:33N 34°41' E 135°23'0 0.0
2016-Jul-25 14:33N 34°41' E 135°23'0 0.0
2016-Jul-25 13:33N 34°41' E 135°23'0 0.0
2016-Jul-25 12:33N 34°41' E 135°23'0 0.0
2016-Jul-25 11:33N 34°41' E 135°23'0 0.0
2016-Jul-25 10:27N 34°41' E 135°23'0 0.0
2016-Jul-25 09:33N 34°41' E 135°23'0 0.0
2016-Jul-25 08:33N 34°41' E 135°23'0 0.0
2016-Jul-25 07:33N 34°41' E 135°23'0 0.0
2016-Jul-25 06:33N 34°41' E 135°23'0 0.0
2016-Jul-25 05:27N 34°41' E 135°23'0 0.0
2016-Jul-25 04:33N 34°41' E 135°23'0 0.0
2016-Jul-25 03:33N 34°41' E 135°23'0 0.0
2016-Jul-25 02:15N 34°41' E 135°23'0 0.0
2016-Jul-24 23:33N 34°41' E 135°23'0 0.0
2016-Jul-24 22:33N 34°41' E 135°23'0 0.0
2016-Jul-24 21:33N 34°41' E 135°23'0 0.0
2016-Jul-24 20:33N 34°41' E 135°23'0 0.0
2016-Jul-24 19:33N 34°41' E 135°23'0 0.0
2016-Jul-24 18:27N 34°41' E 135°23'0 0.0
2016-Jul-24 17:33N 34°41' E 135°23'0 0.0
2016-Jul-24 16:33N 34°41' E 135°23'0 0.0
2016-Jul-24 15:27N 34°41' E 135°23'0 0.0
2016-Jul-24 14:33N 34°41' E 135°23'0 0.0
2016-Jul-24 13:27N 34°41' E 135°23'0 0.0
2016-Jul-24 12:33N 34°41' E 135°23'0 0.0
2016-Jul-24 11:33N 34°41' E 135°23'0 0.0
2016-Jul-24 10:33N 34°41' E 135°23'0 0.0
2016-Jul-24 09:33N 34°41' E 135°23'0 0.0
2016-Jul-24 08:33N 34°41' E 135°23'0 0.0
2016-Jul-24 07:33N 34°41' E 135°23'0 0.0
2016-Jul-24 06:33N 34°41' E 135°23'0 0.0
2016-Jul-24 05:33N 34°41' E 135°23'0 0.0
2016-Jul-24 04:33N 34°41' E 135°23'0 0.0
2016-Jul-24 03:33N 34°41' E 135°23'0 0.0
2016-Jul-24 02:33N 34°41' E 135°23'0 0.0
2016-Jul-24 01:33N 34°41' E 135°23'0 0.0
2016-Jul-24 00:33N 34°41' E 135°23'0 0.0
2016-Jul-23 23:33N 34°41' E 135°23'0 0.1
2016-Jul-23 22:27N 34°41' E 135°23'3 3.3
2016-Jul-23 21:33N 34°40' E 135°20'0 0.0
2016-Jul-23 20:33N 34°40' E 135°20'1 1.3
2016-Jul-23 19:33N 34°39' E 135°20'1413.7
2016-Jul-23 18:33N 34°36' E 135°03'1 0.0
2016-Jul-22 04:33N 34°36' E 135°05'1414.2
2016-Jul-22 03:33N 34°40' E 135°22'2 1.5
2016-Jul-22 02:24N 34°41' E 135°23'0 0.0
2016-Jul-22 01:30N 34°41' E 135°23'0 0.0
2016-Jul-22 00:24N 34°41' E 135°23'0 0.0
2016-Jul-21 23:30N 34°41' E 135°23'2 1.9
2016-Jul-21 22:17N 34°40' E 135°21'0 0.0
2016-Jul-21 21:29N 34°40' E 135°21'0 0.0
2016-Jul-21 20:29N 34°40' E 135°21'0 0.0
2016-Jul-21 19:29N 34°40' E 135°21'8 9.1
2016-Jul-21 18:33N 34°35' E 135°13'1615.7
2016-Jul-21 17:33N 34°35' E 134°54'1 0.0
2016-Jul-20 04:06N 34°36' E 134°53'711.9
2016-Jul-20 03:33N 34°37' E 135°01'1413.6
2016-Jul-20 02:34N 34°38' E 135°18'6 5.3
2016-Jul-20 01:30N 34°41' E 135°23'0 0.0
2016-Jul-20 00:30N 34°41' E 135°23'0 0.0
2016-Jul-19 23:30N 34°41' E 135°23'2 2.4
2016-Jul-19 22:31N 34°40' E 135°21'  
Track history (hours):
 
Tides and Currents Weather Stations Pressure Air Temp Water Temp Dewpoint Dewpoint Depression Visibility Wind Speed Wind Dir Waves Ship Positions

Daihatsumaru

Last reported at 2016-Jul-29 23:32 UTC. Time now 2016-Jul-29 23:40 UTC.
Position N 34°41' E 135°23'.

Length 106 m; draft 4.5 m.

Type: Cargo ship. MMSI: 431000701.

Date/timePositionNaut miles runAvg speedWind from/ knotsBaromVisibWave heightAir tempDewpointWater temp
2016-Jul-29 23:32N 34°41' E 135°23'2 2.2
2016-Jul-29 22:30N 34°40' E 135°21'0 0.0
2016-Jul-29 21:30N 34°40' E 135°21'0 0.0
2016-Jul-29 20:30N 34°40' E 135°21'0 0.1
2016-Jul-29 19:33N 34°40' E 135°21'1313.5
2016-Jul-29 18:33N 34°35' E 135°06'7 0.2
2016-Jul-28 04:33N 34°37' E 134°58'1514.8
2016-Jul-28 03:33N 34°38' E 135°16'7 7.1
2016-Jul-28 02:32N 34°41' E 135°23'0 0.0
2016-Jul-28 01:26N 34°41' E 135°23'0 0.0
2016-Jul-28 00:26N 34°41' E 135°23'0 0.0
2016-Jul-27 23:26N 34°41' E 135°23'0 0.0
2016-Jul-27 22:33N 34°41' E 135°23'3 2.9
2016-Jul-27 21:33N 34°40' E 135°20'0 0.0
2016-Jul-27 20:33N 34°40' E 135°20'8 8.3
2016-Jul-27 19:33N 34°35' E 135°12'1413.7
2016-Jul-27 18:34N 34°36' E 134°55'4 0.1
2016-Jul-26 04:11N 34°35' E 134°51'1016.4
2016-Jul-26 03:34N 34°36' E 135°03'1514.7
2016-Jul-26 02:33N 34°40' E 135°20'3 3.0
2016-Jul-26 01:33N 34°41' E 135°23'0 0.0
2016-Jul-26 00:33N 34°41' E 135°23'0 0.0
2016-Jul-25 23:33N 34°41' E 135°23'0 0.0
2016-Jul-25 22:21N 34°41' E 135°23'0 0.0
2016-Jul-25 21:33N 34°41' E 135°23'0 0.0
2016-Jul-25 20:27N 34°41' E 135°23'0 0.0
2016-Jul-25 19:33N 34°41' E 135°23'0 0.0
2016-Jul-25 18:33N 34°41' E 135°23'0 0.0
2016-Jul-25 17:33N 34°41' E 135°23'0 0.0
2016-Jul-25 16:33N 34°41' E 135°23'0 0.0
2016-Jul-25 15:33N 34°41' E 135°23'0 0.0
2016-Jul-25 14:33N 34°41' E 135°23'0 0.0
2016-Jul-25 13:33N 34°41' E 135°23'0 0.0
2016-Jul-25 12:33N 34°41' E 135°23'0 0.0
2016-Jul-25 11:33N 34°41' E 135°23'0 0.0
2016-Jul-25 10:27N 34°41' E 135°23'0 0.0
2016-Jul-25 09:33N 34°41' E 135°23'0 0.0
2016-Jul-25 08:33N 34°41' E 135°23'0 0.0
2016-Jul-25 07:33N 34°41' E 135°23'0 0.0
2016-Jul-25 06:33N 34°41' E 135°23'0 0.0
2016-Jul-25 05:27N 34°41' E 135°23'0 0.0
2016-Jul-25 04:33N 34°41' E 135°23'0 0.0
2016-Jul-25 03:33N 34°41' E 135°23'0 0.0
2016-Jul-25 02:15N 34°41' E 135°23'0 0.0
2016-Jul-24 23:33N 34°41' E 135°23'0 0.0
2016-Jul-24 22:33N 34°41' E 135°23'0 0.0
2016-Jul-24 21:33N 34°41' E 135°23'0 0.0
2016-Jul-24 20:33N 34°41' E 135°23'0 0.0
2016-Jul-24 19:33N 34°41' E 135°23'0 0.0
2016-Jul-24 18:27N 34°41' E 135°23'0 0.0
2016-Jul-24 17:33N 34°41' E 135°23'0 0.0
2016-Jul-24 16:33N 34°41' E 135°23'0 0.0
2016-Jul-24 15:27N 34°41' E 135°23'0 0.0
2016-Jul-24 14:33N 34°41' E 135°23'0 0.0
2016-Jul-24 13:27N 34°41' E 135°23'0 0.0
2016-Jul-24 12:33N 34°41' E 135°23'0 0.0
2016-Jul-24 11:33N 34°41' E 135°23'0 0.0
2016-Jul-24 10:33N 34°41' E 135°23'0 0.0
2016-Jul-24 09:33N 34°41' E 135°23'0 0.0
2016-Jul-24 08:33N 34°41' E 135°23'0 0.0
2016-Jul-24 07:33N 34°41' E 135°23'0 0.0
2016-Jul-24 06:33N 34°41' E 135°23'0 0.0
2016-Jul-24 05:33N 34°41' E 135°23'0 0.0
2016-Jul-24 04:33N 34°41' E 135°23'0 0.0
2016-Jul-24 03:33N 34°41' E 135°23'0 0.0
2016-Jul-24 02:33N 34°41' E 135°23'0 0.0
2016-Jul-24 01:33N 34°41' E 135°23'0 0.0
2016-Jul-24 00:33N 34°41' E 135°23'0 0.0
2016-Jul-23 23:33N 34°41' E 135°23'0 0.1
2016-Jul-23 22:27N 34°41' E 135°23'3 3.3
2016-Jul-23 21:33N 34°40' E 135°20'0 0.0
2016-Jul-23 20:33N 34°40' E 135°20'1 1.3
2016-Jul-23 19:33N 34°39' E 135°20'1413.7
2016-Jul-23 18:33N 34°36' E 135°03'1 0.0
2016-Jul-22 04:33N 34°36' E 135°05'1414.2
2016-Jul-22 03:33N 34°40' E 135°22'2 1.5
2016-Jul-22 02:24N 34°41' E 135°23'0 0.0
2016-Jul-22 01:30N 34°41' E 135°23'0 0.0
2016-Jul-22 00:24N 34°41' E 135°23'0 0.0
2016-Jul-21 23:30N 34°41' E 135°23'2 1.9
2016-Jul-21 22:17N 34°40' E 135°21'0 0.0
2016-Jul-21 21:29N 34°40' E 135°21'0 0.0
2016-Jul-21 20:29N 34°40' E 135°21'0 0.0
2016-Jul-21 19:29N 34°40' E 135°21'8 9.1
2016-Jul-21 18:33N 34°35' E 135°13'1615.7
2016-Jul-21 17:33N 34°35' E 134°54'1 0.0
2016-Jul-20 04:06N 34°36' E 134°53'711.9
2016-Jul-20 03:33N 34°37' E 135°01'1413.6
2016-Jul-20 02:34N 34°38' E 135°18'6 5.3
2016-Jul-20 01:30N 34°41' E 135°23'0 0.0
2016-Jul-20 00:30N 34°41' E 135°23'0 0.0
2016-Jul-19 23:30N 34°41' E 135°23'2 2.4
2016-Jul-19 22:31N 34°40' E 135°21'  

Dump ship's entire track history